createdAt,value
2023-02-14T00:01:28.135Z,100265.56
2023-02-14T00:04:01.376Z,100265.63
2023-02-14T00:06:30.267Z,100267.38
2023-02-14T00:08:58.327Z,100269.19
2023-02-14T00:11:26.598Z,100260.59
2023-02-14T00:14:13.068Z,100276.19
2023-02-14T00:16:41.294Z,100276.28
2023-02-14T00:19:09.573Z,100276.19
2023-02-14T00:21:38.526Z,100268.38
2023-02-14T00:24:08.860Z,100278.84
2023-02-14T00:26:39.027Z,100269.38
2023-02-14T00:29:10.051Z,100280.66
2023-02-14T00:31:38.073Z,100290.00
2023-02-14T00:34:06.455Z,100288.94
2023-02-14T00:36:35.243Z,100293.16
2023-02-14T00:39:07.118Z,100296.53
2023-02-14T00:41:35.010Z,100298.94
2023-02-14T00:44:03.195Z,100307.53
2023-02-14T00:46:31.126Z,100297.03
2023-02-14T00:48:59.159Z,100300.31
2023-02-14T00:51:27.293Z,100298.66
2023-02-14T00:53:55.650Z,100311.66
2023-02-14T00:56:23.715Z,100302.13
2023-02-14T00:58:51.898Z,100311.78
2023-02-14T01:01:20.054Z,100310.97
2023-02-14T01:03:48.235Z,100315.19
2023-02-14T01:06:16.233Z,100312.50
2023-02-14T01:08:44.393Z,100322.88
2023-02-14T01:11:18.000Z,100317.63
2023-02-14T01:13:47.972Z,100323.69
2023-02-14T01:16:18.094Z,100328.97
2023-02-14T01:18:46.254Z,100330.94
2023-02-14T01:21:20.290Z,100332.13
2023-02-14T01:23:51.325Z,100334.97
2023-02-14T01:26:20.223Z,100333.50
2023-02-14T01:28:48.099Z,100325.16
2023-02-14T01:31:22.122Z,100332.34
2023-02-14T01:33:50.454Z,100331.00
2023-02-14T01:36:25.429Z,100330.25
2023-02-14T01:38:54.818Z,100326.13
2023-02-14T01:41:24.411Z,100328.94
2023-02-14T01:44:02.986Z,100334.34
2023-02-14T01:46:33.448Z,100332.88
2023-02-14T01:49:09.752Z,100333.13
2023-02-14T01:51:39.202Z,100335.06
2023-02-14T01:54:07.446Z,100336.03
2023-02-14T01:56:41.582Z,100332.66
2023-02-14T01:59:11.218Z,100336.84
2023-02-14T02:01:39.401Z,100336.59
2023-02-14T02:04:16.656Z,100338.91
2023-02-14T02:06:46.792Z,100338.63
2023-02-14T02:09:17.701Z,100335.91
2023-02-14T02:11:46.084Z,100340.22
2023-02-14T02:14:19.099Z,100337.50
2023-02-14T02:17:05.812Z,100341.63
2023-02-14T02:19:49.329Z,100341.41
2023-02-14T02:22:29.031Z,100342.88
2023-02-14T02:25:17.208Z,100347.72
2023-02-14T02:28:14.470Z,100352.56
2023-02-14T02:31:06.846Z,100350.22
2023-02-14T02:33:43.512Z,100348.94
2023-02-14T02:36:29.919Z,100353.09
2023-02-14T02:39:09.442Z,100360.75
2023-02-14T02:41:56.373Z,100354.63
2023-02-14T02:44:58.586Z,100353.59
2023-02-14T02:47:33.992Z,100339.00
2023-02-14T02:50:42.017Z,100362.69
2023-02-14T02:53:35.409Z,100356.09
2023-02-14T02:56:31.130Z,100367.75
2023-02-14T02:59:19.406Z,100368.69
2023-02-14T03:02:08.089Z,100364.63
2023-02-14T03:04:53.930Z,100359.50
2023-02-14T03:07:37.247Z,100359.34
2023-02-14T03:10:06.533Z,100365.47
2023-02-14T03:12:34.193Z,100368.31
2023-02-14T03:15:30.449Z,100366.63
2023-02-14T03:18:02.886Z,100372.81
2023-02-14T03:20:45.874Z,100367.72
2023-02-14T03:23:13.625Z,100374.94
2023-02-14T03:26:13.968Z,100377.91
2023-02-14T03:29:02.774Z,100379.84
2023-02-14T03:31:37.522Z,100375.19
2023-02-14T03:34:17.747Z,100371.56
2023-02-14T03:37:04.007Z,100374.69
2023-02-14T03:40:10.307Z,100382.94
2023-02-14T03:42:46.143Z,100380.69
2023-02-14T03:45:19.042Z,100373.28
2023-02-14T03:47:47.444Z,100371.53
2023-02-14T03:50:17.804Z,100372.81
2023-02-14T03:52:46.489Z,100378.13
2023-02-14T03:55:17.101Z,100380.97
2023-02-14T03:58:13.487Z,100382.56
2023-02-14T04:00:41.640Z,100387.56
2023-02-14T04:03:13.440Z,100383.09
2023-02-14T04:05:43.907Z,100388.06
2023-02-14T04:08:12.794Z,100392.38
2023-02-14T04:10:42.312Z,100388.69
2023-02-14T04:13:10.723Z,100385.63
2023-02-14T04:15:38.468Z,100392.53
2023-02-14T04:18:24.714Z,100388.09
2023-02-14T04:20:52.494Z,100390.38
2023-02-14T04:23:21.079Z,100404.66
2023-02-14T04:25:48.902Z,100391.53
2023-02-14T04:28:16.883Z,100387.00
2023-02-14T04:30:44.953Z,100399.94
2023-02-14T04:33:12.970Z,100389.03
2023-02-14T04:35:41.121Z,100387.31
2023-02-14T04:38:08.965Z,100383.50
2023-02-14T04:40:36.703Z,100383.81
2023-02-14T04:43:05.353Z,100377.56
2023-02-14T04:45:33.381Z,100374.94
2023-02-14T04:48:01.364Z,100381.72
2023-02-14T04:50:29.155Z,100385.44
2023-02-14T04:52:57.230Z,100391.25
2023-02-14T04:55:25.346Z,100389.81
2023-02-14T04:57:53.464Z,100392.03
2023-02-14T05:00:22.229Z,100385.94
2023-02-14T05:02:50.080Z,100396.03
2023-02-14T05:05:18.247Z,100396.53
2023-02-14T05:07:48.229Z,100393.38
2023-02-14T05:10:16.286Z,100392.81
2023-02-14T05:12:44.761Z,100396.28
2023-02-14T05:15:12.596Z,100388.78
2023-02-14T05:17:40.672Z,100395.78
2023-02-14T05:20:09.368Z,100398.81
2023-02-14T05:22:37.114Z,100395.66
2023-02-14T05:25:05.101Z,100395.31
2023-02-14T05:27:33.141Z,100395.59
2023-02-14T05:30:01.061Z,100392.84
2023-02-14T05:32:29.081Z,100390.53
2023-02-14T05:34:57.091Z,100385.22
2023-02-14T05:37:24.948Z,100390.53
2023-02-14T05:39:52.946Z,100390.44
2023-02-14T05:42:21.166Z,100387.06
2023-02-14T05:44:49.237Z,100387.50
2023-02-14T05:47:17.259Z,100393.91
2023-02-14T05:49:45.298Z,100385.72
2023-02-14T05:52:13.106Z,100385.88
2023-02-14T05:54:41.138Z,100384.47
2023-02-14T05:57:09.085Z,100389.75
2023-02-14T05:59:37.463Z,100389.56
2023-02-14T06:02:05.331Z,100391.81
2023-02-14T06:04:33.754Z,100392.94
2023-02-14T06:07:01.515Z,100394.53
2023-02-14T06:09:29.335Z,100383.75
2023-02-14T06:11:57.747Z,100388.00
2023-02-14T06:14:25.629Z,100398.88
2023-02-14T06:16:54.352Z,100394.78
2023-02-14T06:19:22.593Z,100387.13
2023-02-14T06:21:50.436Z,100389.97
2023-02-14T06:24:18.867Z,100390.53
2023-02-14T06:26:48.528Z,100392.66
2023-02-14T06:29:18.169Z,100390.34
2023-02-14T06:31:46.093Z,100380.84
2023-02-14T06:34:15.920Z,100388.97
2023-02-14T06:36:44.536Z,100386.91
2023-02-14T06:39:13.009Z,100385.63
2023-02-14T06:41:41.169Z,100382.63
2023-02-14T06:44:11.085Z,100378.94
2023-02-14T06:46:39.168Z,100383.41
2023-02-14T06:49:06.899Z,100383.25
2023-02-14T06:51:34.743Z,100373.44
2023-02-14T06:54:03.165Z,100377.63
2023-02-14T06:56:31.178Z,100375.34
2023-02-14T06:58:59.502Z,100387.75
2023-02-14T07:01:27.848Z,100372.19
2023-02-14T07:03:56.910Z,100370.59
2023-02-14T07:06:24.663Z,100381.13
2023-02-14T07:08:52.348Z,100380.34
2023-02-14T07:11:20.738Z,100380.91
2023-02-14T07:13:49.621Z,100380.88
2023-02-14T07:16:17.754Z,100381.72
2023-02-14T07:18:46.160Z,100378.81
2023-02-14T07:21:13.846Z,100387.06
2023-02-14T07:23:41.830Z,100376.56
2023-02-14T07:26:10.178Z,100376.44
2023-02-14T07:28:38.323Z,100370.66
2023-02-14T07:31:06.857Z,100370.53
2023-02-14T07:33:35.020Z,100366.25
2023-02-14T07:36:07.879Z,100372.38
2023-02-14T07:38:35.546Z,100365.25
2023-02-14T07:41:03.359Z,100374.16
2023-02-14T07:43:31.343Z,100366.97
2023-02-14T07:46:00.995Z,100372.41
2023-02-14T07:48:31.058Z,100360.38
2023-02-14T07:51:00.591Z,100355.72
2023-02-14T07:53:28.842Z,100358.13
2023-02-14T07:55:57.257Z,100357.84
2023-02-14T07:58:25.021Z,100358.13
2023-02-14T08:00:53.075Z,100362.03
2023-02-14T08:03:20.883Z,100365.78
2023-02-14T08:05:57.530Z,100363.47
2023-02-14T08:08:30.183Z,100359.34
2023-02-14T08:10:58.545Z,100368.72
2023-02-14T08:13:26.571Z,100373.56
2023-02-14T08:16:06.897Z,100368.66
2023-02-14T08:18:42.054Z,100372.72
2023-02-14T08:21:11.318Z,100369.38
2023-02-14T08:23:39.627Z,100372.97
2023-02-14T08:26:08.059Z,100362.41
2023-02-14T08:28:36.074Z,100359.25
2023-02-14T08:31:04.556Z,100366.72
2023-02-14T08:33:33.307Z,100359.34
2023-02-14T08:36:01.205Z,100369.53
2023-02-14T08:38:30.069Z,100367.41
2023-02-14T08:41:04.552Z,100381.22
2023-02-14T08:43:34.432Z,100376.38
2023-02-14T08:46:03.089Z,100380.97
2023-02-14T08:48:31.627Z,100377.44
2023-02-14T08:50:59.719Z,100377.31
2023-02-14T08:53:27.796Z,100372.13
2023-02-14T08:55:55.628Z,100372.19
2023-02-14T08:58:23.362Z,100380.69
2023-02-14T09:00:51.559Z,100386.47
2023-02-14T09:03:19.900Z,100388.09
2023-02-14T09:05:47.885Z,100388.09
2023-02-14T09:08:16.124Z,100387.97
2023-02-14T09:10:44.137Z,100391.44
2023-02-14T09:13:11.989Z,100393.91
2023-02-14T09:15:40.688Z,100384.41
2023-02-14T09:18:08.789Z,100395.06
2023-02-14T09:20:37.148Z,100393.88
2023-02-14T09:23:05.442Z,100396.25
2023-02-14T09:25:33.699Z,100401.16
2023-02-14T09:28:01.790Z,100406.09
2023-02-14T09:30:29.684Z,100398.94
2023-02-14T09:32:57.620Z,100402.97
2023-02-14T09:35:25.385Z,100398.28
2023-02-14T09:37:53.254Z,100404.78
2023-02-14T09:40:21.352Z,100402.41
2023-02-14T09:43:03.315Z,100396.56
2023-02-14T09:45:31.878Z,100402.91
2023-02-14T09:48:15.878Z,100392.56
2023-02-14T09:50:49.097Z,100395.16
2023-02-14T09:53:22.204Z,100402.22
2023-02-14T09:56:15.488Z,100397.19
2023-02-14T09:58:59.378Z,100401.66
2023-02-14T10:01:32.617Z,100399.28
2023-02-14T10:04:19.348Z,100401.34
2023-02-14T10:07:12.593Z,100416.44
2023-02-14T10:09:43.576Z,100420.22
2023-02-14T10:12:19.924Z,100414.50
2023-02-14T10:14:48.027Z,100418.16
2023-02-14T10:17:18.879Z,100414.72
2023-02-14T10:19:57.019Z,100414.91
2023-02-14T10:22:46.917Z,100415.88
2023-02-14T10:25:25.272Z,100425.41
2023-02-14T10:27:53.790Z,100422.91
2023-02-14T10:30:23.097Z,100413.50
2023-02-14T10:33:02.026Z,100418.19
2023-02-14T10:35:40.984Z,100421.06
2023-02-14T10:38:37.202Z,100422.25
2023-02-14T10:41:25.180Z,100425.09
2023-02-14T10:44:09.528Z,100428.81
2023-02-14T10:47:01.374Z,100420.53
2023-02-14T10:49:45.143Z,100427.78
2023-02-14T10:52:22.454Z,100410.59
2023-02-14T10:55:00.474Z,100414.28
2023-02-14T10:57:41.688Z,100415.38
2023-02-14T11:00:31.640Z,100417.28
2023-02-14T11:03:00.961Z,100420.09
2023-02-14T11:05:38.122Z,100421.06
2023-02-14T11:08:23.713Z,100427.22
2023-02-14T11:10:51.693Z,100423.78
2023-02-14T11:13:35.784Z,100423.00
2023-02-14T11:16:09.268Z,100426.59
2023-02-14T11:18:41.334Z,100417.13
2023-02-14T11:21:11.358Z,100425.84
2023-02-14T11:23:44.977Z,100426.75
2023-02-14T11:26:35.091Z,100425.91
2023-02-14T11:29:10.800Z,100426.09
2023-02-14T11:31:39.623Z,100413.09
2023-02-14T11:34:26.290Z,100420.91
2023-02-14T11:36:56.163Z,100422.69
2023-02-14T11:39:28.713Z,100426.19
2023-02-14T11:41:57.668Z,100426.25
2023-02-14T11:44:30.360Z,100427.34
2023-02-14T11:46:58.356Z,100425.72
2023-02-14T11:49:32.140Z,100425.22
2023-02-14T11:52:10.407Z,100430.53
2023-02-14T11:54:41.037Z,100434.22
2023-02-14T11:57:22.830Z,100445.53
2023-02-14T11:59:54.664Z,100443.97
2023-02-14T12:02:38.872Z,100452.72
2023-02-14T12:05:29.314Z,100460.59
2023-02-14T12:08:07.222Z,100462.50
2023-02-14T12:10:40.630Z,100461.75
2023-02-14T12:13:09.512Z,100461.00
2023-02-14T12:15:47.916Z,100459.38
2023-02-14T12:18:47.863Z,100453.50
2023-02-14T12:21:23.666Z,100471.06
2023-02-14T12:24:25.603Z,100462.66
2023-02-14T12:27:01.813Z,100460.19
2023-02-14T12:29:42.872Z,100452.63
2023-02-14T12:32:20.725Z,100454.50
2023-02-14T12:34:50.128Z,100456.34
2023-02-14T12:37:24.764Z,100461.66
2023-02-14T12:40:02.509Z,100459.28
2023-02-14T12:42:47.378Z,100464.63
2023-02-14T12:45:25.978Z,100462.19
2023-02-14T12:48:16.322Z,100458.88
2023-02-14T12:50:48.921Z,100471.16
2023-02-14T12:53:38.860Z,100475.69
2023-02-14T12:56:34.854Z,100469.88
2023-02-14T12:59:28.281Z,100484.81
2023-02-14T13:02:15.722Z,100477.22
2023-02-14T13:05:02.691Z,100479.09
2023-02-14T13:08:07.492Z,100473.94
2023-02-14T13:10:47.865Z,100474.00
2023-02-14T13:13:37.143Z,100461.03
2023-02-14T13:16:22.623Z,100456.69
2023-02-14T13:18:57.125Z,100453.19
2023-02-14T13:21:32.181Z,100455.78
2023-02-14T13:24:29.418Z,100461.91
2023-02-14T13:27:00.311Z,100462.91
2023-02-14T13:29:33.996Z,100469.09
2023-02-14T13:32:03.528Z,100476.16
2023-02-14T13:34:37.770Z,100480.56
2023-02-14T13:37:08.856Z,100472.84
2023-02-14T13:39:43.416Z,100469.38
2023-02-14T13:42:13.421Z,100477.19
2023-02-14T13:44:50.812Z,100471.97
2023-02-14T13:47:27.208Z,100475.41
2023-02-14T13:50:04.308Z,100471.88
2023-02-14T13:52:47.105Z,100464.06
2023-02-14T13:55:23.815Z,100466.66
2023-02-14T13:58:24.764Z,100478.81
2023-02-14T14:00:53.580Z,100484.16
2023-02-14T14:03:31.486Z,100480.84
2023-02-14T14:06:12.316Z,100475.78
2023-02-14T14:08:44.229Z,100488.09
2023-02-14T14:11:22.354Z,100482.22
2023-02-14T14:14:02.404Z,100480.75
2023-02-14T14:16:35.534Z,100480.13
2023-02-14T14:19:21.387Z,100476.81
2023-02-14T14:22:09.974Z,100476.06
2023-02-14T14:24:38.444Z,100479.69
2023-02-14T14:27:15.996Z,100472.94
2023-02-14T14:29:54.689Z,100475.66
2023-02-14T14:32:30.788Z,100478.31
2023-02-14T14:35:23.161Z,100472.44
2023-02-14T14:37:53.709Z,100468.25
2023-02-14T14:40:30.482Z,100478.59
2023-02-14T14:43:21.986Z,100473.41
2023-02-14T14:45:50.169Z,100478.72
2023-02-14T14:48:22.832Z,100476.13
2023-02-14T14:50:51.287Z,100473.53
2023-02-14T14:53:46.483Z,100482.13
2023-02-14T14:56:24.832Z,100477.84
2023-02-14T14:58:52.985Z,100477.00
2023-02-14T15:01:38.110Z,100473.44
2023-02-14T15:04:16.429Z,100477.72
2023-02-14T15:06:45.416Z,100475.94
2023-02-14T15:09:23.469Z,100481.06
2023-02-14T15:12:11.048Z,100480.19
2023-02-14T15:14:42.012Z,100475.84
2023-02-14T15:17:25.905Z,100472.50
2023-02-14T15:19:56.224Z,100475.13
2023-02-14T15:22:37.398Z,100483.66
2023-02-14T15:25:14.621Z,100475.94
2023-02-14T15:27:42.671Z,100477.56
2023-02-14T15:30:39.549Z,100476.66
2023-02-14T15:33:07.529Z,100471.47
2023-02-14T15:35:37.588Z,100462.84
2023-02-14T15:38:06.413Z,100460.19
2023-02-14T15:40:35.238Z,100453.34
2023-02-14T15:43:33.371Z,100456.03
2023-02-14T15:46:37.610Z,100457.84
2023-02-14T15:49:12.745Z,100452.03
2023-02-14T15:51:41.302Z,100449.50
2023-02-14T15:54:47.867Z,100454.81
2023-02-14T15:57:26.914Z,100451.47
2023-02-14T15:59:55.358Z,100448.16
2023-02-14T16:02:42.870Z,100442.16
2023-02-14T16:05:23.639Z,100443.88
2023-02-14T16:08:05.619Z,100455.13
2023-02-14T16:10:34.624Z,100446.50
2023-02-14T16:13:14.885Z,100457.78
2023-02-14T16:16:00.798Z,100450.88
2023-02-14T16:18:39.792Z,100456.09
2023-02-14T16:21:28.042Z,100448.31
2023-02-14T16:24:14.175Z,100451.72
2023-02-14T16:26:43.684Z,100446.50
2023-02-14T16:29:13.646Z,100449.13
2023-02-14T16:34:40.859Z,100437.91
2023-02-14T16:37:10.369Z,100439.69
2023-02-14T16:39:38.326Z,100441.38
2023-02-14T16:42:06.401Z,100451.78
2023-02-14T16:44:34.369Z,100441.50
2023-02-14T16:47:02.728Z,100436.41
2023-02-14T16:49:30.488Z,100434.84
2023-02-14T16:51:58.256Z,100432.34
2023-02-14T16:54:26.299Z,100431.63
2023-02-14T16:57:02.785Z,100433.44
2023-02-14T16:59:30.953Z,100430.94
2023-02-14T17:01:59.365Z,100431.91
2023-02-14T17:04:27.481Z,100411.28
2023-02-14T17:06:57.823Z,100407.13
2023-02-14T17:09:32.638Z,100413.28
2023-02-14T17:12:02.358Z,100415.97
2023-02-14T17:14:33.018Z,100408.25
2023-02-14T17:17:00.863Z,100413.41
2023-02-14T17:19:28.824Z,100408.25
2023-02-14T17:22:00.654Z,100406.47
2023-02-14T17:24:28.465Z,100407.34
2023-02-14T17:26:56.345Z,100410.78
2023-02-14T17:29:24.128Z,100415.09
2023-02-14T17:31:52.243Z,100423.59
2023-02-14T17:34:20.138Z,100422.50
2023-02-14T17:36:48.577Z,100420.47
2023-02-14T17:39:18.920Z,100433.97
2023-02-14T17:41:47.234Z,100427.47
2023-02-14T17:44:16.176Z,100425.44
2023-02-14T17:46:44.430Z,100434.72
2023-02-14T17:49:12.762Z,100426.72
2023-02-14T17:51:40.556Z,100418.66
2023-02-14T17:54:08.565Z,100416.88
2023-02-14T17:56:36.328Z,100416.19
2023-02-14T17:59:04.469Z,100418.97
2023-02-14T18:01:34.961Z,100415.69
2023-02-14T18:04:03.557Z,100407.25
2023-02-14T18:06:33.013Z,100408.13
2023-02-14T18:09:02.055Z,100407.94
2023-02-14T18:11:30.962Z,100404.28
2023-02-14T18:14:00.158Z,100411.84
2023-02-14T18:16:28.586Z,100415.94
2023-02-14T18:18:56.739Z,100396.69
2023-02-14T18:21:24.950Z,100401.75
2023-02-14T18:23:53.409Z,100405.13
2023-02-14T18:26:21.161Z,100403.69
2023-02-14T18:28:51.649Z,100413.50
2023-02-14T18:31:19.623Z,100407.72
2023-02-14T18:33:48.398Z,100416.56
2023-02-14T18:36:18.706Z,100417.44
2023-02-14T18:38:48.341Z,100411.53
2023-02-14T18:41:17.561Z,100419.59
2023-02-14T18:43:45.752Z,100409.69
2023-02-14T18:46:16.233Z,100416.09
2023-02-14T18:48:48.200Z,100404.28
2023-02-14T18:51:24.673Z,100396.56
2023-02-14T18:53:52.642Z,100388.00
2023-02-14T18:56:31.648Z,100402.75
2023-02-14T18:59:01.830Z,100391.59
2023-02-14T19:01:31.596Z,100382.16
2023-02-14T19:04:00.497Z,100396.78
2023-02-14T19:06:30.012Z,100383.59
2023-02-14T19:08:58.637Z,100386.78
2023-02-14T19:11:28.561Z,100399.59
2023-02-14T19:13:57.340Z,100389.97
2023-02-14T19:16:33.748Z,100392.34
2023-02-14T19:19:03.007Z,100385.13
2023-02-14T19:21:32.941Z,100382.25
2023-02-14T19:24:01.615Z,100390.47
2023-02-14T19:26:33.146Z,100390.88
2023-02-14T19:29:02.667Z,100392.28
2023-02-14T19:31:31.008Z,100391.09
2023-02-14T19:33:59.089Z,100395.00
2023-02-14T19:36:27.006Z,100382.47
2023-02-14T19:38:56.444Z,100383.81
2023-02-14T19:41:30.572Z,100378.66
2023-02-14T19:43:59.489Z,100380.53
2023-02-14T19:46:28.339Z,100384.72
2023-02-14T19:48:57.678Z,100376.91
2023-02-14T19:51:30.219Z,100376.91
2023-02-14T19:53:59.668Z,100383.03
2023-02-14T19:56:29.453Z,100381.38
2023-02-14T19:58:57.715Z,100374.69
2023-02-14T20:01:27.772Z,100376.69
2023-02-14T20:03:55.837Z,100367.50
2023-02-14T20:06:24.267Z,100380.47
2023-02-14T20:08:52.335Z,100382.28
2023-02-14T20:11:30.964Z,100382.41
2023-02-14T20:13:59.719Z,100390.06
2023-02-14T20:16:28.538Z,100387.31
2023-02-14T20:18:56.503Z,100384.84
2023-02-14T20:21:28.868Z,100382.34
2023-02-14T20:24:01.143Z,100382.22
2023-02-14T20:26:29.887Z,100380.41
2023-02-14T20:29:04.066Z,100375.94
2023-02-14T20:31:32.993Z,100383.53
2023-02-14T20:34:00.991Z,100372.88
2023-02-14T20:36:29.062Z,100374.28
2023-02-14T20:39:01.142Z,100374.88
2023-02-14T20:41:29.437Z,100381.50
2023-02-14T20:44:03.371Z,100380.41
2023-02-14T20:46:32.161Z,100371.69
2023-02-14T20:49:00.413Z,100370.81
2023-02-14T20:51:28.453Z,100369.88
2023-02-14T20:53:56.322Z,100373.25
2023-02-14T20:56:24.334Z,100372.94
2023-02-14T20:58:52.597Z,100370.72
2023-02-14T21:01:24.457Z,100372.09
2023-02-14T21:03:53.470Z,100366.56
2023-02-14T21:06:23.603Z,100360.19
2023-02-14T21:08:51.490Z,100366.78
2023-02-14T21:11:20.651Z,100363.88
2023-02-14T21:13:48.467Z,100365.63
2023-02-14T21:16:17.878Z,100363.03
2023-02-14T21:18:48.971Z,100361.19
2023-02-14T21:21:20.931Z,100361.88
2023-02-14T21:23:52.362Z,100354.81
2023-02-14T21:26:20.706Z,100359.94
2023-02-14T21:28:48.837Z,100355.66
2023-02-14T21:31:18.530Z,100347.69
2023-02-14T21:33:46.374Z,100350.16
2023-02-14T21:36:16.276Z,100350.91
2023-02-14T21:38:44.334Z,100349.03
2023-02-14T21:41:14.139Z,100347.19
2023-02-14T21:43:43.988Z,100344.53
2023-02-14T21:46:27.780Z,100347.72
2023-02-14T21:49:14.298Z,100349.38
2023-02-14T21:51:42.465Z,100344.13
2023-02-14T21:54:10.642Z,100350.19
2023-02-14T21:56:39.198Z,100351.19
2023-02-14T21:59:07.058Z,100345.91
2023-02-14T22:01:35.933Z,100353.75
2023-02-14T22:04:08.116Z,100346.81
2023-02-14T22:06:38.050Z,100339.91
2023-02-14T22:09:05.932Z,100343.38
2023-02-14T22:11:34.231Z,100346.72
2023-02-14T22:14:02.003Z,100346.59
2023-02-14T22:16:30.204Z,100345.75
2023-02-14T22:18:58.259Z,100344.75
2023-02-14T22:21:26.989Z,100353.56
2023-02-14T22:23:56.000Z,100358.78
2023-02-14T22:26:28.882Z,100359.59
2023-02-14T22:28:59.753Z,100357.69
2023-02-14T22:31:29.754Z,100350.56
2023-02-14T22:33:57.751Z,100353.91
2023-02-14T22:36:25.732Z,100358.81
2023-02-14T22:38:53.640Z,100363.06
2023-02-14T22:41:23.096Z,100361.38
2023-02-14T22:43:51.556Z,100358.59
2023-02-14T22:46:21.592Z,100352.34
2023-02-14T22:48:49.830Z,100352.06
2023-02-14T22:51:27.991Z,100361.44
2023-02-14T22:54:00.995Z,100351.69
2023-02-14T22:56:36.289Z,100340.59
2023-02-14T22:59:06.684Z,100353.56
2023-02-14T23:01:35.122Z,100358.16
2023-02-14T23:04:03.571Z,100354.16
2023-02-14T23:06:33.107Z,100356.72
2023-02-14T23:09:01.568Z,100357.91
2023-02-14T23:11:30.628Z,100354.53
2023-02-14T23:14:17.472Z,100354.66
2023-02-14T23:17:03.944Z,100356.41
2023-02-14T23:19:52.404Z,100356.69
2023-02-14T23:22:28.379Z,100352.75
2023-02-14T23:25:00.585Z,100354.69
2023-02-14T23:27:34.129Z,100350.59
2023-02-14T23:30:02.575Z,100358.53
2023-02-14T23:32:30.437Z,100359.28
2023-02-14T23:34:58.771Z,100357.50
2023-02-14T23:37:26.590Z,100351.44
2023-02-14T23:39:54.362Z,100341.00
2023-02-14T23:42:22.541Z,100342.13
2023-02-14T23:44:50.328Z,100335.41
2023-02-14T23:47:18.696Z,100351.34
2023-02-14T23:49:46.613Z,100347.28
2023-02-14T23:52:15.106Z,100343.13
2023-02-14T23:54:42.937Z,100351.97
2023-02-14T23:57:10.819Z,100351.25
2023-02-14T23:59:38.593Z,100345.94
